sensor_id;sensor_type;location;lat;lon;timestamp;pressure;altitude;pressure_sealevel;temperature;humidity
37778;BME280;23615;51.506;7.678;2023-05-14T00:01:48;100261.94;;;12.05;90.49
37778;BME280;23615;51.506;7.678;2023-05-14T00:04:16;100269.41;;;12.15;91.10
37778;BME280;23615;51.506;7.678;2023-05-14T00:06:42;100263.88;;;11.98;91.10
37778;BME280;23615;51.506;7.678;2023-05-14T00:09:07;100261.63;;;11.83;92.57
37778;BME280;23615;51.506;7.678;2023-05-14T00:11:32;100270.53;;;11.77;93.16
37778;BME280;23615;51.506;7.678;2023-05-14T00:13:57;100263.78;;;11.75;93.14
37778;BME280;23615;51.506;7.678;2023-05-14T00:16:23;100268.28;;;11.74;93.06
37778;BME280;23615;51.506;7.678;2023-05-14T00:18:48;100266.66;;;11.73;92.55
37778;BME280;23615;51.506;7.678;2023-05-14T00:21:13;100260.88;;;11.76;92.49
37778;BME280;23615;51.506;7.678;2023-05-14T00:23:39;100258.41;;;11.75;91.90
37778;BME280;23615;51.506;7.678;2023-05-14T00:26:04;100258.25;;;11.70;92.13
37778;BME280;23615;51.506;7.678;2023-05-14T00:28:29;100256.28;;;11.65;92.54
37778;BME280;23615;51.506;7.678;2023-05-14T00:30:55;100260.81;;;11.65;92.37
37778;BME280;23615;51.506;7.678;2023-05-14T00:33:21;100262.88;;;11.62;92.75
37778;BME280;23615;51.506;7.678;2023-05-14T00:35:47;100262.41;;;11.66;92.48
37778;BME280;23615;51.506;7.678;2023-05-14T00:38:13;100264.22;;;11.72;91.96
37778;BME280;23615;51.506;7.678;2023-05-14T00:40:42;100246.69;;;11.76;91.85
37778;BME280;23615;51.506;7.678;2023-05-14T00:43:10;100254.16;;;11.67;91.65
37778;BME280;23615;51.506;7.678;2023-05-14T00:45:35;100251.91;;;11.52;92.53
37778;BME280;23615;51.506;7.678;2023-05-14T00:48:01;100247.69;;;11.45;93.21
37778;BME280;23615;51.506;7.678;2023-05-14T00:50:26;100249.22;;;11.52;92.61
37778;BME280;23615;51.506;7.678;2023-05-14T00:52:52;100246.66;;;11.46;92.73
37778;BME280;23615;51.506;7.678;2023-05-14T00:55:17;100234.38;;;11.38;93.19
37778;BME280;23615;51.506;7.678;2023-05-14T00:57:43;100238.94;;;11.38;93.07
37778;BME280;23615;51.506;7.678;2023-05-14T01:00:09;100246.78;;;11.33;93.89
37778;BME280;23615;51.506;7.678;2023-05-14T01:02:34;100240.41;;;11.34;93.90
37778;BME280;23615;51.506;7.678;2023-05-14T01:05:00;100245.53;;;11.35;93.65
37778;BME280;23615;51.506;7.678;2023-05-14T01:10:12;100240.63;;;11.50;92.38
37778;BME280;23615;51.506;7.678;2023-05-14T01:15:22;100243.59;;;11.24;94.07
37778;BME280;23615;51.506;7.678;2023-05-14T01:17:55;100234.38;;;11.20;93.82
37778;BME280;23615;51.506;7.678;2023-05-14T01:20:22;100234.75;;;11.23;93.56
37778;BME280;23615;51.506;7.678;2023-05-14T01:22:47;100237.44;;;11.23;93.52
37778;BME280;23615;51.506;7.678;2023-05-14T01:25:12;100237.59;;;11.29;93.26
37778;BME280;23615;51.506;7.678;2023-05-14T01:30:30;100236.84;;;11.21;93.72
37778;BME280;23615;51.506;7.678;2023-05-14T01:33:01;100236.25;;;11.19;93.47
37778;BME280;23615;51.506;7.678;2023-05-14T01:35:28;100232.78;;;11.19;93.54
37778;BME280;23615;51.506;7.678;2023-05-14T01:37:56;100236.25;;;11.19;93.60
37778;BME280;23615;51.506;7.678;2023-05-14T01:40:22;100228.78;;;11.28;93.17
37778;BME280;23615;51.506;7.678;2023-05-14T01:42:49;100227.44;;;11.19;93.27
37778;BME280;23615;51.506;7.678;2023-05-14T01:45:16;100227.03;;;11.15;93.64
37778;BME280;23615;51.506;7.678;2023-05-14T01:47:42;100227.25;;;11.14;93.73
37778;BME280;23615;51.506;7.678;2023-05-14T01:50:07;100214.00;;;11.07;93.98
37778;BME280;23615;51.506;7.678;2023-05-14T01:52:33;100215.25;;;11.05;93.93
37778;BME280;23615;51.506;7.678;2023-05-14T01:54:58;100216.81;;;11.12;93.77
37778;BME280;23615;51.506;7.678;2023-05-14T01:57:24;100213.78;;;11.09;92.83
37778;BME280;23615;51.506;7.678;2023-05-14T01:59:49;100216.28;;;11.04;92.97
37778;BME280;23615;51.506;7.678;2023-05-14T02:02:14;100208.56;;;10.96;93.70
37778;BME280;23615;51.506;7.678;2023-05-14T02:04:40;100208.63;;;10.89;94.08
37778;BME280;23615;51.506;7.678;2023-05-14T02:07:05;100211.53;;;10.87;94.38
37778;BME280;23615;51.506;7.678;2023-05-14T02:09:30;100217.47;;;10.90;94.24
37778;BME280;23615;51.506;7.678;2023-05-14T02:11:56;100223.84;;;10.88;93.90
37778;BME280;23615;51.506;7.678;2023-05-14T02:14:21;100208.25;;;10.85;94.01
37778;BME280;23615;51.506;7.678;2023-05-14T02:16:46;100218.94;;;10.85;93.81
37778;BME280;23615;51.506;7.678;2023-05-14T02:19:11;100215.44;;;10.85;93.48
37778;BME280;23615;51.506;7.678;2023-05-14T02:21:37;100215.22;;;10.86;93.08
37778;BME280;23615;51.506;7.678;2023-05-14T02:24:02;100219.97;;;10.84;93.25
37778;BME280;23615;51.506;7.678;2023-05-14T02:26:27;100203.09;;;10.91;92.71
37778;BME280;23615;51.506;7.678;2023-05-14T02:28:53;100213.59;;;10.85;92.66
37778;BME280;23615;51.506;7.678;2023-05-14T02:31:18;100207.94;;;10.75;92.85
37778;BME280;23615;51.506;7.678;2023-05-14T02:33:44;100206.97;;;10.70;93.58
37778;BME280;23615;51.506;7.678;2023-05-14T02:36:09;100210.03;;;10.73;93.70
37778;BME280;23615;51.506;7.678;2023-05-14T02:38:34;100207.00;;;10.88;93.66
37778;BME280;23615;51.506;7.678;2023-05-14T02:40:59;100201.66;;;10.88;93.75
37778;BME280;23615;51.506;7.678;2023-05-14T02:43:25;100198.28;;;10.74;94.26
37778;BME280;23615;51.506;7.678;2023-05-14T02:45:50;100198.00;;;10.64;95.08
37778;BME280;23615;51.506;7.678;2023-05-14T02:48:15;100201.75;;;10.57;95.72
37778;BME280;23615;51.506;7.678;2023-05-14T02:50:41;100196.81;;;10.60;95.60
37778;BME280;23615;51.506;7.678;2023-05-14T02:53:06;100192.69;;;10.64;95.56
37778;BME280;23615;51.506;7.678;2023-05-14T02:55:33;100197.09;;;10.52;95.27
37778;BME280;23615;51.506;7.678;2023-05-14T02:57:58;100203.31;;;10.46;96.13
37778;BME280;23615;51.506;7.678;2023-05-14T03:00:23;100208.03;;;10.44;96.51
37778;BME280;23615;51.506;7.678;2023-05-14T03:02:48;100200.19;;;10.49;96.18
37778;BME280;23615;51.506;7.678;2023-05-14T03:05:14;100210.50;;;10.45;96.36
37778;BME280;23615;51.506;7.678;2023-05-14T03:07:39;100206.19;;;10.44;96.35
37778;BME280;23615;51.506;7.678;2023-05-14T03:10:05;100202.97;;;10.61;95.38
37778;BME280;23615;51.506;7.678;2023-05-14T03:12:30;100196.41;;;10.57;95.39
37778;BME280;23615;51.506;7.678;2023-05-14T03:14:55;100194.56;;;10.57;95.02
37778;BME280;23615;51.506;7.678;2023-05-14T03:17:21;100196.88;;;10.54;95.38
37778;BME280;23615;51.506;7.678;2023-05-14T03:19:46;100198.00;;;10.39;95.75
37778;BME280;23615;51.506;7.678;2023-05-14T03:22:11;100202.22;;;10.29;96.07
37778;BME280;23615;51.506;7.678;2023-05-14T03:24:38;100199.97;;;10.26;96.21
37778;BME280;23615;51.506;7.678;2023-05-14T03:27:04;100202.69;;;10.19;96.40
37778;BME280;23615;51.506;7.678;2023-05-14T03:29:29;100201.06;;;10.18;96.66
37778;BME280;23615;51.506;7.678;2023-05-14T03:31:54;100196.91;;;10.22;96.69
37778;BME280;23615;51.506;7.678;2023-05-14T03:34:20;100197.72;;;10.23;95.89
37778;BME280;23615;51.506;7.678;2023-05-14T03:36:45;100191.41;;;10.17;95.81
37778;BME280;23615;51.506;7.678;2023-05-14T03:39:10;100188.53;;;10.19;95.83
37778;BME280;23615;51.506;7.678;2023-05-14T03:41:39;100192.41;;;10.23;95.57
37778;BME280;23615;51.506;7.678;2023-05-14T03:44:04;100183.75;;;10.27;95.63
37778;BME280;23615;51.506;7.678;2023-05-14T03:46:30;100194.97;;;10.36;94.84
37778;BME280;23615;51.506;7.678;2023-05-14T03:48:55;100185.97;;;10.30;94.84
37778;BME280;23615;51.506;7.678;2023-05-14T03:51:20;100185.44;;;10.22;95.43
37778;BME280;23615;51.506;7.678;2023-05-14T03:53:46;100184.84;;;10.20;95.28
37778;BME280;23615;51.506;7.678;2023-05-14T03:56:11;100181.38;;;10.12;95.91
37778;BME280;23615;51.506;7.678;2023-05-14T03:58:36;100186.47;;;10.14;95.90
37778;BME280;23615;51.506;7.678;2023-05-14T04:01:01;100189.22;;;10.07;96.05
37778;BME280;23615;51.506;7.678;2023-05-14T04:03:27;100187.16;;;10.09;95.86
37778;BME280;23615;51.506;7.678;2023-05-14T04:05:52;100186.81;;;9.99;96.20
37778;BME280;23615;51.506;7.678;2023-05-14T04:08:17;100184.78;;;9.95;96.50
37778;BME280;23615;51.506;7.678;2023-05-14T04:10:43;100193.22;;;9.92;97.10
37778;BME280;23615;51.506;7.678;2023-05-14T04:13:08;100193.63;;;9.89;97.20
37778;BME280;23615;51.506;7.678;2023-05-14T04:15:33;100189.72;;;9.91;97.50
37778;BME280;23615;51.506;7.678;2023-05-14T04:18:00;100186.81;;;9.93;96.95
37778;BME280;23615;51.506;7.678;2023-05-14T04:20:25;100186.47;;;9.89;97.01
37778;BME280;23615;51.506;7.678;2023-05-14T04:22:51;100179.50;;;9.88;96.99
37778;BME280;23615;51.506;7.678;2023-05-14T04:25:16;100180.94;;;9.84;96.83
37778;BME280;23615;51.506;7.678;2023-05-14T04:27:42;100183.19;;;9.87;97.32
37778;BME280;23615;51.506;7.678;2023-05-14T04:30:08;100171.06;;;9.91;97.05
37778;BME280;23615;51.506;7.678;2023-05-14T04:32:33;100179.06;;;9.91;97.36
37778;BME280;23615;51.506;7.678;2023-05-14T04:34:59;100175.53;;;9.97;96.84
37778;BME280;23615;51.506;7.678;2023-05-14T04:37:25;100175.28;;;10.05;96.67
37778;BME280;23615;51.506;7.678;2023-05-14T04:39:50;100172.19;;;10.08;96.58
37778;BME280;23615;51.506;7.678;2023-05-14T04:42:15;100177.88;;;10.12;96.13
37778;BME280;23615;51.506;7.678;2023-05-14T04:44:40;100181.38;;;10.19;96.84
37778;BME280;23615;51.506;7.678;2023-05-14T04:47:06;100173.94;;;10.21;96.72
37778;BME280;23615;51.506;7.678;2023-05-14T04:49:31;100183.75;;;10.27;96.78
37778;BME280;23615;51.506;7.678;2023-05-14T04:51:57;100182.88;;;10.33;95.85
37778;BME280;23615;51.506;7.678;2023-05-14T04:54:23;100182.25;;;10.38;95.80
37778;BME280;23615;51.506;7.678;2023-05-14T04:56:49;100174.94;;;10.52;94.39
37778;BME280;23615;51.506;7.678;2023-05-14T04:59:16;100174.53;;;10.48;94.26
37778;BME280;23615;51.506;7.678;2023-05-14T05:01:41;100175.47;;;10.60;94.08
37778;BME280;23615;51.506;7.678;2023-05-14T05:04:06;100175.38;;;10.67;93.57
37778;BME280;23615;51.506;7.678;2023-05-14T05:06:31;100178.88;;;10.67;93.09
37778;BME280;23615;51.506;7.678;2023-05-14T05:08:57;100180.19;;;10.58;93.94
37778;BME280;23615;51.506;7.678;2023-05-14T05:11:22;100177.53;;;10.58;94.02
37778;BME280;23615;51.506;7.678;2023-05-14T05:13:47;100182.22;;;10.63;94.46
37778;BME280;23615;51.506;7.678;2023-05-14T05:16:13;100178.44;;;10.70;94.37
37778;BME280;23615;51.506;7.678;2023-05-14T05:18:38;100179.94;;;10.84;94.71
37778;BME280;23615;51.506;7.678;2023-05-14T05:21:04;100175.06;;;10.81;95.26
37778;BME280;23615;51.506;7.678;2023-05-14T05:23:29;100178.25;;;10.90;95.32
37778;BME280;23615;51.506;7.678;2023-05-14T05:25:54;100171.56;;;10.99;95.35
37778;BME280;23615;51.506;7.678;2023-05-14T05:28:20;100176.31;;;10.97;94.99
37778;BME280;23615;51.506;7.678;2023-05-14T05:30:45;100168.31;;;10.97;95.35
37778;BME280;23615;51.506;7.678;2023-05-14T05:33:11;100184.53;;;11.14;95.01
37778;BME280;23615;51.506;7.678;2023-05-14T05:35:36;100176.81;;;11.24;94.64
37778;BME280;23615;51.506;7.678;2023-05-14T05:38:02;100182.53;;;11.28;94.68
37778;BME280;23615;51.506;7.678;2023-05-14T05:40:27;100182.91;;;11.31;94.59
37778;BME280;23615;51.506;7.678;2023-05-14T05:42:52;100178.53;;;11.37;94.63
37778;BME280;23615;51.506;7.678;2023-05-14T05:45:18;100183.63;;;11.38;94.89
37778;BME280;23615;51.506;7.678;2023-05-14T05:47:43;100185.22;;;11.57;94.79
37778;BME280;23615;51.506;7.678;2023-05-14T05:50:09;100184.06;;;11.53;95.05
37778;BME280;23615;51.506;7.678;2023-05-14T05:52:35;100188.16;;;11.56;95.66
37778;BME280;23615;51.506;7.678;2023-05-14T05:55:00;100190.00;;;11.55;95.96
37778;BME280;23615;51.506;7.678;2023-05-14T05:57:25;100194.66;;;11.60;95.63
37778;BME280;23615;51.506;7.678;2023-05-14T05:59:51;100202.56;;;11.67;94.94
37778;BME280;23615;51.506;7.678;2023-05-14T06:02:16;100199.19;;;11.59;94.91
37778;BME280;23615;51.506;7.678;2023-05-14T06:04:41;100194.28;;;11.56;95.05
37778;BME280;23615;51.506;7.678;2023-05-14T06:07:07;100202.28;;;11.56;95.08
37778;BME280;23615;51.506;7.678;2023-05-14T06:09:32;100196.50;;;11.59;95.13
37778;BME280;23615;51.506;7.678;2023-05-14T06:11:57;100205.63;;;11.70;94.89
37778;BME280;23615;51.506;7.678;2023-05-14T06:14:23;100196.50;;;11.78;94.43
37778;BME280;23615;51.506;7.678;2023-05-14T06:16:48;100200.81;;;11.79;93.94
37778;BME280;23615;51.506;7.678;2023-05-14T06:19:13;100204.53;;;11.78;94.60
37778;BME280;23615;51.506;7.678;2023-05-14T06:21:38;100202.44;;;11.80;94.97
37778;BME280;23615;51.506;7.678;2023-05-14T06:24:04;100212.44;;;11.84;95.07
37778;BME280;23615;51.506;7.678;2023-05-14T06:26:29;100215.25;;;11.89;95.26
37778;BME280;23615;51.506;7.678;2023-05-14T06:28:55;100213.31;;;11.96;95.27
37778;BME280;23615;51.506;7.678;2023-05-14T06:31:20;100208.88;;;12.02;95.16
37778;BME280;23615;51.506;7.678;2023-05-14T06:33:45;100212.31;;;12.09;95.30
37778;BME280;23615;51.506;7.678;2023-05-14T06:36:11;100210.22;;;12.23;95.19
37778;BME280;23615;51.506;7.678;2023-05-14T06:38:36;100211.19;;;12.28;95.39
37778;BME280;23615;51.506;7.678;2023-05-14T06:41:01;100207.13;;;12.38;95.72
37778;BME280;23615;51.506;7.678;2023-05-14T06:43:27;100201.44;;;12.46;95.45
37778;BME280;23615;51.506;7.678;2023-05-14T06:45:53;100202.97;;;12.53;95.63
37778;BME280;23615;51.506;7.678;2023-05-14T06:48:19;100208.63;;;12.57;96.41
37778;BME280;23615;51.506;7.678;2023-05-14T06:50:45;100195.28;;;12.68;96.15
37778;BME280;23615;51.506;7.678;2023-05-14T06:53:11;100201.91;;;12.78;95.81
37778;BME280;23615;51.506;7.678;2023-05-14T06:55:36;100204.34;;;12.91;95.64
37778;BME280;23615;51.506;7.678;2023-05-14T06:58:01;100198.88;;;12.97;95.69
37778;BME280;23615;51.506;7.678;2023-05-14T07:00:29;100205.63;;;13.00;96.22
37778;BME280;23615;51.506;7.678;2023-05-14T07:02:54;100199.19;;;13.12;95.32
37778;BME280;23615;51.506;7.678;2023-05-14T07:05:19;100195.94;;;13.22;94.71
37778;BME280;23615;51.506;7.678;2023-05-14T07:07:45;100186.47;;;13.31;93.98
37778;BME280;23615;51.506;7.678;2023-05-14T07:10:10;100190.53;;;13.45;92.65
37778;BME280;23615;51.506;7.678;2023-05-14T07:12:35;100189.09;;;13.55;91.94
37778;BME280;23615;51.506;7.678;2023-05-14T07:15:01;100184.16;;;13.63;90.83
37778;BME280;23615;51.506;7.678;2023-05-14T07:17:26;100184.91;;;13.75;90.47
37778;BME280;23615;51.506;7.678;2023-05-14T07:19:51;100174.06;;;13.82;89.83
37778;BME280;23615;51.506;7.678;2023-05-14T07:22:19;100186.25;;;13.90;89.85
37778;BME280;23615;51.506;7.678;2023-05-14T07:24:44;100175.38;;;13.96;89.74
37778;BME280;23615;51.506;7.678;2023-05-14T07:27:10;100179.06;;;14.07;89.55
37778;BME280;23615;51.506;7.678;2023-05-14T07:29:36;100174.69;;;14.17;88.87
37778;BME280;23615;51.506;7.678;2023-05-14T07:32:02;100170.84;;;14.30;88.75
37778;BME280;23615;51.506;7.678;2023-05-14T07:34:27;100174.44;;;14.36;88.76
37778;BME280;23615;51.506;7.678;2023-05-14T07:36:52;100175.94;;;14.43;88.81
37778;BME280;23615;51.506;7.678;2023-05-14T07:39:18;100162.66;;;14.53;88.10
37778;BME280;23615;51.506;7.678;2023-05-14T07:41:43;100169.63;;;14.71;88.30
37778;BME280;23615;51.506;7.678;2023-05-14T07:44:08;100162.44;;;14.77;87.65
37778;BME280;23615;51.506;7.678;2023-05-14T07:46:35;100167.38;;;14.85;87.99
37778;BME280;23615;51.506;7.678;2023-05-14T07:49:00;100158.34;;;14.91;87.20
37778;BME280;23615;51.506;7.678;2023-05-14T07:51:26;100166.00;;;14.99;86.75
37778;BME280;23615;51.506;7.678;2023-05-14T07:53:52;100166.13;;;15.09;86.45
37778;BME280;23615;51.506;7.678;2023-05-14T07:56:19;100164.09;;;15.21;84.92
37778;BME280;23615;51.506;7.678;2023-05-14T07:58:44;100154.84;;;15.34;84.89
37778;BME280;23615;51.506;7.678;2023-05-14T08:01:10;100163.53;;;15.41;83.96
37778;BME280;23615;51.506;7.678;2023-05-14T08:03:36;100160.28;;;15.39;82.26
37778;BME280;23615;51.506;7.678;2023-05-14T08:06:02;100156.75;;;15.55;82.49
37778;BME280;23615;51.506;7.678;2023-05-14T08:08:28;100158.63;;;15.55;82.32
37778;BME280;23615;51.506;7.678;2023-05-14T08:10:53;100157.91;;;15.64;81.24
37778;BME280;23615;51.506;7.678;2023-05-14T08:13:19;100156.69;;;15.77;80.94
37778;BME280;23615;51.506;7.678;2023-05-14T08:15:44;100152.72;;;15.85;81.48
37778;BME280;23615;51.506;7.678;2023-05-14T08:18:09;100159.00;;;15.95;82.74
37778;BME280;23615;51.506;7.678;2023-05-14T08:20:35;100156.13;;;16.02;83.44
37778;BME280;23615;51.506;7.678;2023-05-14T08:23:00;100159.97;;;16.11;83.25
37778;BME280;23615;51.506;7.678;2023-05-14T08:25:25;100158.16;;;16.22;84.12
37778;BME280;23615;51.506;7.678;2023-05-14T08:27:50;100169.75;;;16.22;85.13
37778;BME280;23615;51.506;7.678;2023-05-14T08:30:17;100164.44;;;16.32;83.93
37778;BME280;23615;51.506;7.678;2023-05-14T08:32:43;100166.56;;;16.30;83.03
37778;BME280;23615;51.506;7.678;2023-05-14T08:35:08;100159.91;;;16.38;83.95
37778;BME280;23615;51.506;7.678;2023-05-14T08:37:33;100160.19;;;16.36;83.76
37778;BME280;23615;51.506;7.678;2023-05-14T08:39:59;100163.72;;;16.42;83.42
37778;BME280;23615;51.506;7.678;2023-05-14T08:42:25;100158.88;;;16.44;83.21
37778;BME280;23615;51.506;7.678;2023-05-14T08:45:00;100157.88;;;16.55;84.10
37778;BME280;23615;51.506;7.678;2023-05-14T08:47:29;100151.00;;;16.69;84.19
37778;BME280;23615;51.506;7.678;2023-05-14T08:50:03;100154.00;;;16.73;83.47
37778;BME280;23615;51.506;7.678;2023-05-14T08:52:31;100150.78;;;16.81;81.49
37778;BME280;23615;51.506;7.678;2023-05-14T08:55:03;100151.63;;;16.87;80.54
37778;BME280;23615;51.506;7.678;2023-05-14T08:57:31;100149.78;;;16.97;80.74
37778;BME280;23615;51.506;7.678;2023-05-14T08:59:56;100146.84;;;17.04;79.55
37778;BME280;23615;51.506;7.678;2023-05-14T09:02:24;100143.34;;;16.98;78.82
37778;BME280;23615;51.506;7.678;2023-05-14T09:04:55;100140.94;;;17.07;81.27
37778;BME280;23615;51.506;7.678;2023-05-14T09:07:21;100134.50;;;17.13;82.59
37778;BME280;23615;51.506;7.678;2023-05-14T09:09:46;100131.56;;;17.25;82.39
37778;BME280;23615;51.506;7.678;2023-05-14T09:12:12;100128.09;;;17.39;81.89
37778;BME280;23615;51.506;7.678;2023-05-14T09:14:37;100132.19;;;17.47;79.63
37778;BME280;23615;51.506;7.678;2023-05-14T09:17:03;100126.50;;;17.48;79.16
37778;BME280;23615;51.506;7.678;2023-05-14T09:19:28;100137.56;;;17.37;80.36
37778;BME280;23615;51.506;7.678;2023-05-14T09:21:55;100137.06;;;17.55;79.62
37778;BME280;23615;51.506;7.678;2023-05-14T09:24:23;100131.66;;;17.60;78.83
37778;BME280;23615;51.506;7.678;2023-05-14T09:26:53;100139.50;;;17.62;80.01
37778;BME280;23615;51.506;7.678;2023-05-14T09:29:18;100136.84;;;17.77;76.92
37778;BME280;23615;51.506;7.678;2023-05-14T09:31:44;100140.63;;;17.86;76.95
37778;BME280;23615;51.506;7.678;2023-05-14T09:34:09;100133.09;;;17.83;75.96
37778;BME280;23615;51.506;7.678;2023-05-14T09:36:35;100133.13;;;17.93;75.69
37778;BME280;23615;51.506;7.678;2023-05-14T09:39:03;100136.34;;;17.90;75.70
37778;BME280;23615;51.506;7.678;2023-05-14T09:41:28;100136.88;;;17.97;76.08
37778;BME280;23615;51.506;7.678;2023-05-14T09:43:54;100126.63;;;18.14;76.92
37778;BME280;23615;51.506;7.678;2023-05-14T09:46:20;100128.75;;;18.32;76.82
37778;BME280;23615;51.506;7.678;2023-05-14T09:48:46;100119.59;;;18.33;73.61
37778;BME280;23615;51.506;7.678;2023-05-14T09:51:12;100124.19;;;18.38;75.51
37778;BME280;23615;51.506;7.678;2023-05-14T09:53:38;100122.53;;;18.52;74.96
37778;BME280;23615;51.506;7.678;2023-05-14T09:56:05;100116.06;;;18.63;74.49
37778;BME280;23615;51.506;7.678;2023-05-14T09:58:30;100109.84;;;18.48;74.47
37778;BME280;23615;51.506;7.678;2023-05-14T10:00:56;100105.50;;;18.62;73.62
37778;BME280;23615;51.506;7.678;2023-05-14T10:03:24;100113.06;;;18.70;72.91
37778;BME280;23615;51.506;7.678;2023-05-14T10:05:51;100106.28;;;18.78;74.52
37778;BME280;23615;51.506;7.678;2023-05-14T10:08:43;100104.84;;;19.00;71.76
37778;BME280;23615;51.506;7.678;2023-05-14T10:11:18;100106.69;;;19.10;71.55
37778;BME280;23615;51.506;7.678;2023-05-14T10:13:54;100104.81;;;19.05;71.11
37778;BME280;23615;51.506;7.678;2023-05-14T10:16:27;100104.84;;;19.00;71.60
37778;BME280;23615;51.506;7.678;2023-05-14T10:19:00;100098.88;;;19.03;71.20
37778;BME280;23615;51.506;7.678;2023-05-14T10:21:29;100101.78;;;19.17;70.24
37778;BME280;23615;51.506;7.678;2023-05-14T10:23:57;100108.25;;;19.26;70.22
37778;BME280;23615;51.506;7.678;2023-05-14T10:26:23;100105.47;;;19.36;70.52
37778;BME280;23615;51.506;7.678;2023-05-14T10:28:49;100107.31;;;19.51;71.42
37778;BME280;23615;51.506;7.678;2023-05-14T10:31:14;100095.66;;;19.51;70.20
37778;BME280;23615;51.506;7.678;2023-05-14T10:33:47;100085.19;;;19.78;71.06
37778;BME280;23615;51.506;7.678;2023-05-14T10:36:14;100083.47;;;19.92;72.44
37778;BME280;23615;51.506;7.678;2023-05-14T10:38:40;100087.59;;;20.13;72.48
37778;BME280;23615;51.506;7.678;2023-05-14T10:41:12;100090.50;;;20.22;70.20
37778;BME280;23615;51.506;7.678;2023-05-14T10:43:40;100084.97;;;20.32;68.87
37778;BME280;23615;51.506;7.678;2023-05-14T10:46:06;100078.94;;;20.45;68.42
37778;BME280;23615;51.506;7.678;2023-05-14T10:48:32;100087.59;;;20.47;67.03
37778;BME280;23615;51.506;7.678;2023-05-14T10:50:59;100074.94;;;20.38;68.33
37778;BME280;23615;51.506;7.678;2023-05-14T10:53:32;100079.66;;;20.51;68.88
37778;BME280;23615;51.506;7.678;2023-05-14T10:56:02;100073.44;;;20.50;67.66
37778;BME280;23615;51.506;7.678;2023-05-14T10:58:30;100078.53;;;20.57;67.44
37778;BME280;23615;51.506;7.678;2023-05-14T11:00:58;100078.47;;;20.38;69.10
37778;BME280;23615;51.506;7.678;2023-05-14T11:03:28;100072.03;;;20.29;70.05
37778;BME280;23615;51.506;7.678;2023-05-14T11:05:54;100068.72;;;20.37;69.71
37778;BME280;23615;51.506;7.678;2023-05-14T11:08:20;100068.25;;;20.54;67.81
37778;BME280;23615;51.506;7.678;2023-05-14T11:10:47;100059.31;;;20.53;67.77
37778;BME280;23615;51.506;7.678;2023-05-14T11:13:13;100063.28;;;20.61;68.25
37778;BME280;23615;51.506;7.678;2023-05-14T11:15:41;100061.63;;;20.65;67.00
37778;BME280;23615;51.506;7.678;2023-05-14T11:18:11;100058.22;;;20.54;71.35
37778;BME280;23615;51.506;7.678;2023-05-14T11:20:36;100048.41;;;20.35;73.16
37778;BME280;23615;51.506;7.678;2023-05-14T11:23:02;100047.38;;;20.54;68.45
37778;BME280;23615;51.506;7.678;2023-05-14T11:25:27;100045.00;;;20.72;67.59
37778;BME280;23615;51.506;7.678;2023-05-14T11:27:53;100052.53;;;20.56;68.62
37778;BME280;23615;51.506;7.678;2023-05-14T11:30:22;100044.56;;;20.65;68.39
37778;BME280;23615;51.506;7.678;2023-05-14T11:32:48;100045.91;;;20.86;66.75
37778;BME280;23615;51.506;7.678;2023-05-14T11:35:15;100046.59;;;20.97;66.83
37778;BME280;23615;51.506;7.678;2023-05-14T11:37:41;100035.03;;;21.10;65.71
37778;BME280;23615;51.506;7.678;2023-05-14T11:40:08;100045.16;;;21.23;65.56
37778;BME280;23615;51.506;7.678;2023-05-14T11:42:38;100032.72;;;20.98;66.77
37778;BME280;23615;51.506;7.678;2023-05-14T11:45:03;100029.56;;;20.91;66.61
37778;BME280;23615;51.506;7.678;2023-05-14T11:47:29;100037.88;;;21.00;66.71
37778;BME280;23615;51.506;7.678;2023-05-14T11:49:55;100035.13;;;20.81;64.40
37778;BME280;23615;51.506;7.678;2023-05-14T11:52:21;100028.97;;;20.94;63.81
37778;BME280;23615;51.506;7.678;2023-05-14T11:54:46;100030.88;;;21.17;63.83
37778;BME280;23615;51.506;7.678;2023-05-14T11:57:16;100024.44;;;20.89;63.50
37778;BME280;23615;51.506;7.678;2023-05-14T11:59:42;100023.09;;;21.30;63.64
37778;BME280;23615;51.506;7.678;2023-05-14T12:02:09;100022.09;;;21.58;62.68
37778;BME280;23615;51.506;7.678;2023-05-14T12:04:35;100018.53;;;21.44;63.38
37778;BME280;23615;51.506;7.678;2023-05-14T12:07:10;100021.88;;;21.17;62.21
37778;BME280;23615;51.506;7.678;2023-05-14T12:09:46;100013.22;;;21.15;63.53
37778;BME280;23615;51.506;7.678;2023-05-14T12:12:15;100015.28;;;21.04;62.62
37778;BME280;23615;51.506;7.678;2023-05-14T12:14:42;100015.66;;;21.16;61.17
37778;BME280;23615;51.506;7.678;2023-05-14T12:17:25;100018.31;;;21.40;60.47
37778;BME280;23615;51.506;7.678;2023-05-14T12:19:51;100012.72;;;21.50;59.29
37778;BME280;23615;51.506;7.678;2023-05-14T12:22:21;100004.16;;;21.43;59.13
37778;BME280;23615;51.506;7.678;2023-05-14T12:24:57;100001.13;;;21.07;63.26
37778;BME280;23615;51.506;7.678;2023-05-14T12:27:24;99986.78;;;21.25;60.48
37778;BME280;23615;51.506;7.678;2023-05-14T12:29:57;99986.47;;;21.46;58.51
37778;BME280;23615;51.506;7.678;2023-05-14T12:32:26;99994.66;;;21.59;57.59
37778;BME280;23615;51.506;7.678;2023-05-14T12:34:52;99985.06;;;21.81;58.67
37778;BME280;23615;51.506;7.678;2023-05-14T12:37:17;99984.34;;;21.75;56.11
37778;BME280;23615;51.506;7.678;2023-05-14T12:39:43;99981.63;;;21.75;58.23
37778;BME280;23615;51.506;7.678;2023-05-14T12:42:08;99973.97;;;21.77;60.40
37778;BME280;23615;51.506;7.678;2023-05-14T12:46:58;99971.19;;;21.96;57.48
37778;BME280;23615;51.506;7.678;2023-05-14T12:49:24;99974.66;;;22.15;59.04
37778;BME280;23615;51.506;7.678;2023-05-14T12:51:49;99971.75;;;22.12;59.00
37778;BME280;23615;51.506;7.678;2023-05-14T12:54:14;99970.84;;;22.02;58.97
37778;BME280;23615;51.506;7.678;2023-05-14T12:56:40;99970.50;;;21.90;61.07